Time;durP1;ratioP1;P1;durP2;ratioP2;P2;SDS_P1;SDS_P2;PMS_P1;PMS_P2;Temp;Humidity;BMP_temperature;BMP_pressure;BME280_temperature;BME280_humidity;BME280_pressure;Samples;Min_cycle;Max_cycle;Signal;HPM_P1;HPM_P2
2022/06/10 00:02:04;;;;;;;5.47;3.20;;;12.40;99.90;;;;;;5055291;28;20231;-85
2022/06/10 00:04:32;;;;;;;6.80;3.00;;;12.30;99.90;;;;;;5055227;28;20216;-85
2022/06/10 00:06:57;;;;;;;5.53;2.47;;;12.20;99.90;;;;;;5055199;28;20215;-84
2022/06/10 00:09:23;;;;;;;3.80;2.50;;;12.10;99.90;;;;;;5037433;28;20455;-85
2022/06/10 00:11:51;;;;;;;4.60;2.77;;;12.00;99.90;;;;;;5037383;28;20611;-84
2022/06/10 00:14:16;;;;;;;12.90;2.73;;;12.00;99.90;;;;;;5036856;28;20177;-84
2022/06/10 00:16:42;;;;;;;4.37;2.87;;;12.00;99.90;;;;;;5054908;28;20462;-85
2022/06/10 00:19:07;;;;;;;7.37;3.70;;;12.00;99.90;;;;;;5055113;28;20548;-84
2022/06/10 00:21:33;;;;;;;5.23;2.50;;;12.00;99.90;;;;;;5055173;28;20221;-86
2022/06/10 00:23:58;;;;;;;9.53;4.33;;;12.00;99.90;;;;;;5055312;28;20170;-86
2022/06/10 00:26:24;;;;;;;7.23;2.93;;;12.10;99.90;;;;;;5055253;28;20178;-89
2022/06/10 00:28:49;;;;;;;6.43;3.53;;;12.00;99.90;;;;;;5027940;28;20185;-89
2022/06/10 00:31:16;;;;;;;6.10;3.80;;;12.00;99.90;;;;;;5030459;28;20367;-89
2022/06/10 00:33:42;;;;;;;5.63;2.70;;;12.00;99.90;;;;;;5034893;28;20182;-88
2022/06/10 00:36:11;;;;;;;5.30;3.77;;;11.90;99.90;;;;;;5021041;28;20429;-86
2022/06/10 00:38:37;;;;;;;6.17;4.77;;;12.00;99.90;;;;;;5034770;28;20172;-84
2022/06/10 00:41:03;;;;;;;7.63;3.70;;;11.90;99.90;;;;;;5034749;28;20475;-84
2022/06/10 00:43:31;;;;;;;6.00;3.07;;;11.90;99.90;;;;;;5034796;28;20413;-85
2022/06/10 00:46:05;;;;;;;7.17;3.80;;;11.90;99.90;;;;;;5034316;28;20488;-87
2022/06/10 00:49:21;;;;;;;5.40;2.90;;;12.00;99.90;;;;;;5033868;28;20399;-85
2022/06/10 00:51:54;;;;;;;6.40;3.60;;;11.90;99.90;;;;;;5003046;28;20421;-85
2022/06/10 00:54:32;;;;;;;5.80;3.30;;;11.80;99.90;;;;;;5034406;28;20420;-85
2022/06/10 00:57:00;;;;;;;5.30;3.90;;;11.80;99.90;;;;;;5034475;28;20468;-84
2022/06/10 00:59:32;;;;;;;7.17;4.47;;;11.80;99.90;;;;;;5016479;28;20996;-84
2022/06/10 01:02:11;;;;;;;6.97;3.90;;;11.80;99.90;;;;;;5034463;28;20472;-84
2022/06/10 01:04:40;;;;;;;6.30;4.50;;;11.80;99.90;;;;;;5034411;28;20408;-87
2022/06/10 01:07:11;;;;;;;7.23;3.97;;;11.70;99.90;;;;;;5034092;28;20454;-85
2022/06/10 01:09:38;;;;;;;6.00;3.50;;;11.70;99.90;;;;;;5034154;28;20428;-85
2022/06/10 01:12:45;;;;;;;9.77;4.40;;;11.80;99.90;;;;;;5016399;28;20416;-86
2022/06/10 01:15:38;;;;;;;6.07;4.10;;;11.80;99.90;;;;;;4996261;28;20783;-86
2022/06/10 01:18:26;;;;;;;4.57;3.90;;;11.70;99.90;;;;;;4996627;28;20468;-88
2022/06/10 01:21:06;;;;;;;8.03;3.70;;;11.40;99.90;;;;;;5014173;28;20475;-85
2022/06/10 01:24:11;;;;;;;5.97;3.60;;;11.50;99.90;;;;;;5014130;28;20418;-85
2022/06/10 01:30:10;;;;;;;4.50;3.17;;;11.10;99.90;;;;;;5013778;28;20424;-85
2022/06/10 01:32:47;;;;;;;5.10;3.77;;;11.10;99.90;;;;;;5023817;28;20471;-84
2022/06/10 01:35:28;;;;;;;6.23;3.27;;;11.00;99.90;;;;;;5033620;28;20472;-88
2022/06/10 01:38:21;;;;;;;5.60;3.07;;;11.00;99.90;;;;;;5016105;28;20423;-84
2022/06/10 01:40:59;;;;;;;5.87;4.93;;;11.00;99.90;;;;;;5016138;28;20467;-88
2022/06/10 01:44:04;;;;;;;5.00;3.23;;;11.00;99.90;;;;;;5032724;28;20455;-84
2022/06/10 01:46:33;;;;;;;4.83;3.50;;;10.90;99.90;;;;;;5032461;28;20422;-90
2022/06/10 01:49:26;;;;;;;7.70;3.80;;;11.00;99.90;;;;;;5033912;28;20413;-86
2022/06/10 01:52:19;;;;;;;4.70;4.03;;;10.90;99.90;;;;;;5031520;28;20419;-85
2022/06/10 01:55:13;;;;;;;5.90;3.77;;;10.90;99.90;;;;;;5033583;28;20421;-83
2022/06/10 01:57:59;;;;;;;5.60;3.80;;;10.90;99.90;;;;;;5033330;28;20412;-84
2022/06/10 02:00:32;;;;;;;6.90;3.50;;;11.00;99.90;;;;;;5035016;28;20453;-84
2022/06/10 02:03:26;;;;;;;5.63;3.17;;;11.00;99.90;;;;;;5033201;28;20404;-84
2022/06/10 02:06:01;;;;;;;8.67;4.53;;;11.10;99.90;;;;;;5033246;28;20426;-83
2022/06/10 02:08:34;;;;;;;9.23;5.33;;;11.20;99.90;;;;;;5033282;28;20961;-85
2022/06/10 02:11:07;;;;;;;4.87;3.37;;;11.30;99.90;;;;;;5032079;28;20427;-85
2022/06/10 02:13:45;;;;;;;5.80;3.10;;;11.30;99.90;;;;;;5032969;28;20457;-84
2022/06/10 02:16:14;;;;;;;8.57;5.00;;;11.20;99.90;;;;;;5032334;28;20796;-87
2022/06/10 02:18:44;;;;;;;7.10;4.93;;;11.10;99.90;;;;;;5033032;28;20774;-84
2022/06/10 02:21:18;;;;;;;7.20;4.00;;;11.00;99.90;;;;;;5032423;28;20585;-83
2022/06/10 02:23:47;;;;;;;6.93;3.80;;;10.80;99.90;;;;;;5032688;28;20417;-83
2022/06/10 02:26:14;;;;;;;5.60;4.13;;;10.80;99.90;;;;;;5014866;28;20423;-86
2022/06/10 02:28:44;;;;;;;8.63;4.87;;;10.80;99.90;;;;;;5031376;28;20928;-84
2022/06/10 02:31:17;;;;;;;9.70;4.10;;;11.00;99.90;;;;;;5032213;28;20455;-85
2022/06/10 02:33:44;;;;;;;5.43;3.80;;;;;;;;;;5029852;28;20439;-84
2022/06/10 02:36:37;;;;;;;5.63;3.30;;;10.80;99.90;;;;;;5021566;28;20827;-83
2022/06/10 02:39:20;;;;;;;5.00;4.40;;;10.60;99.90;;;;;;5024188;28;20443;-82
2022/06/10 02:42:11;;;;;;;7.23;3.67;;;10.50;99.90;;;;;;5032764;28;20859;-83
2022/06/10 02:44:49;;;;;;;5.13;3.77;;;10.50;99.90;;;;;;5010588;28;20422;-83
2022/06/10 02:47:29;;;;;;;8.23;3.80;;;10.40;99.90;;;;;;5031428;28;20425;-83
2022/06/10 02:49:55;;;;;;;5.67;3.43;;;10.40;99.90;;;;;;5025649;28;20457;-84
2022/06/10 02:52:25;;;;;;;4.97;3.67;;;10.30;99.90;;;;;;5031946;28;20505;-85
2022/06/10 02:54:51;;;;;;;6.67;3.30;;;10.30;99.90;;;;;;5014802;28;20438;-85
2022/06/10 02:57:21;;;;;;;6.67;3.97;;;10.30;99.90;;;;;;5032480;28;20844;-87
2022/06/10 03:03:04;;;;;;;6.87;3.60;;;10.40;99.90;;;;;;5032192;28;20406;-84
2022/06/10 03:05:32;;;;;;;5.20;3.43;;;10.50;99.90;;;;;;5031403;28;20411;-84
2022/06/10 03:08:16;;;;;;;5.10;3.80;;;10.60;99.90;;;;;;5029760;28;20794;-84
2022/06/10 03:11:01;;;;;;;5.47;3.90;;;10.50;99.90;;;;;;5014414;28;20425;-90
2022/06/10 03:13:54;;;;;;;4.97;4.00;;;10.60;99.90;;;;;;5035788;28;20449;-81
2022/06/10 03:16:57;;;;;;;7.00;4.30;;;10.50;99.90;;;;;;5024401;28;20946;-83
2022/06/10 03:19:39;;;;;;;8.27;5.20;;;10.50;99.90;;;;;;5034240;28;20451;-82
2022/06/10 03:22:35;;;;;;;4.83;3.97;;;10.60;99.90;;;;;;5016827;28;20425;-83
2022/06/10 03:25:18;;;;;;;5.43;3.60;;;10.60;99.90;;;;;;5033659;28;20472;-89
2022/06/10 03:27:52;;;;;;;6.83;4.70;;;10.60;99.90;;;;;;5033938;28;20406;-82
2022/06/10 03:30:25;;;;;;;6.60;4.77;;;10.70;99.90;;;;;;5011499;28;20424;-81
2022/06/10 03:33:21;;;;;;;10.90;4.90;;;10.70;99.90;;;;;;5031181;28;20477;-83
2022/06/10 03:36:00;;;;;;;7.53;5.17;;;10.70;99.90;;;;;;5032338;28;20935;-82
2022/06/10 03:38:27;;;;;;;9.30;5.83;;;10.80;99.90;;;;;;5034163;28;20939;-81
2022/06/10 03:40:56;;;;;;;9.30;4.83;;;10.90;99.90;;;;;;5035243;28;20465;-81
2022/06/10 03:43:23;;;;;;;6.13;4.53;;;10.90;99.90;;;;;;5034816;28;20458;-82
2022/06/10 03:45:58;;;;;;;8.90;5.27;;;10.90;99.90;;;;;;5035233;28;20909;-84
2022/06/10 03:48:26;;;;;;;8.80;5.83;;;11.00;99.90;;;;;;5033630;28;20774;-82
2022/06/10 03:50:52;;;;;;;7.97;6.37;;;11.00;99.90;;;;;;5035166;28;20452;-83
2022/06/10 03:53:23;;;;;;;9.07;6.40;;;11.00;99.90;;;;;;5029404;28;20497;-82
2022/06/10 03:55:48;;;;;;;9.00;6.60;;;11.10;99.90;;;;;;5025596;28;20190;-82
2022/06/10 03:58:15;;;;;;;7.47;6.30;;;11.00;99.90;;;;;;5023908;28;20762;-81
2022/06/10 04:00:41;;;;;;;6.53;5.87;;;11.00;99.90;;;;;;5024959;28;20258;-82
2022/06/10 04:03:06;;;;;;;13.50;6.43;;;11.00;99.90;;;;;;5023963;28;20425;-82
2022/06/10 04:05:32;;;;;;;7.83;5.33;;;11.10;99.90;;;;;;5026125;28;20434;-81
2022/06/10 04:07:58;;;;;;;8.70;6.30;;;11.10;99.90;;;;;;5022277;28;20571;-81
2022/06/10 04:10:26;;;;;;;12.37;6.83;;;11.20;99.90;;;;;;5024952;28;20441;-82
2022/06/10 04:12:52;;;;;;;8.93;6.43;;;11.10;99.90;;;;;;5014578;28;20449;-82
2022/06/10 04:15:18;;;;;;;9.40;6.20;;;11.20;99.90;;;;;;5034905;28;20416;-83
2022/06/10 04:17:46;;;;;;;11.40;7.90;;;11.20;99.90;;;;;;5017401;28;20487;-83
2022/06/10 04:20:16;;;;;;;10.90;6.47;;;11.20;99.90;;;;;;5034974;28;20465;-82
2022/06/10 04:22:42;;;;;;;12.63;7.37;;;11.20;99.90;;;;;;5033750;28;20409;-83
2022/06/10 04:25:11;;;;;;;9.00;7.10;;;11.20;99.90;;;;;;5034882;28;20919;-81
2022/06/10 04:27:37;;;;;;;13.60;6.97;;;11.20;99.90;;;;;;5016981;28;20193;-81
2022/06/10 04:30:05;;;;;;;10.60;7.70;;;11.30;99.90;;;;;;5034498;28;20747;-81
2022/06/10 04:32:31;;;;;;;9.73;7.27;;;11.40;99.90;;;;;;5034531;28;20764;-81
2022/06/10 04:34:56;;;;;;;8.70;6.50;;;11.40;99.90;;;;;;5034310;28;20479;-81
2022/06/10 04:37:23;;;;;;;10.83;8.07;;;11.40;99.90;;;;;;5034516;28;20655;-81
2022/06/10 04:39:48;;;;;;;10.40;6.70;;;11.50;99.90;;;;;;5016846;28;20175;-81
2022/06/10 04:42:14;;;;;;;10.90;7.13;;;11.60;99.90;;;;;;5034458;28;20760;-81
2022/06/10 04:44:39;;;;;;;11.07;8.47;;;11.60;99.90;;;;;;5034168;28;20253;-83
2022/06/10 04:47:07;;;;;;;13.50;9.00;;;11.60;99.90;;;;;;5034507;28;20183;-80
2022/06/10 04:49:33;;;;;;;15.33;7.80;;;11.70;99.90;;;;;;5034468;28;20242;-80
2022/06/10 04:51:58;;;;;;;8.80;7.50;;;11.70;99.90;;;;;;5034383;28;20458;-81
2022/06/10 04:54:24;;;;;;;13.77;8.17;;;11.80;99.90;;;;;;5016646;28;20449;-80
2022/06/10 04:56:53;;;;;;;12.00;7.50;;;11.90;99.90;;;;;;5034340;28;20702;-80
2022/06/10 04:59:18;;;;;;;9.40;8.37;;;11.90;99.90;;;;;;5034016;28;20654;-85
2022/06/10 05:01:46;;;;;;;12.80;7.63;;;12.00;99.90;;;;;;5033583;28;20561;-83
2022/06/10 05:04:12;;;;;;;11.90;7.10;;;12.20;99.90;;;;;;5034182;28;20168;-81
2022/06/10 05:06:37;;;;;;;11.20;6.57;;;12.20;99.90;;;;;;5033093;28;20593;-82
2022/06/10 05:09:03;;;;;;;11.67;7.10;;;12.30;99.90;;;;;;5033886;28;20182;-83
2022/06/10 05:11:29;;;;;;;7.30;5.30;;;12.40;99.90;;;;;;5034125;28;20183;-85
2022/06/10 05:13:54;;;;;;;12.53;7.10;;;12.60;99.90;;;;;;5015879;28;20427;-82
2022/06/10 05:16:20;;;;;;;11.17;6.20;;;12.70;99.90;;;;;;5033977;28;20178;-84
2022/06/10 05:18:46;;;;;;;9.13;6.60;;;12.80;99.90;;;;;;5033966;28;20171;-83
2022/06/10 05:21:15;;;;;;;9.33;6.80;;;12.90;99.90;;;;;;5033859;28;20200;-86
2022/06/10 05:23:44;;;;;;;12.17;9.43;;;13.10;99.90;;;;;;5033854;28;20416;-83
2022/06/10 05:26:11;;;;;;;10.43;5.30;;;13.20;99.90;;;;;;5033885;28;20423;-83
2022/06/10 05:28:36;;;;;;;9.50;5.80;;;13.40;99.90;;;;;;5033428;28;20752;-85
2022/06/10 05:31:02;;;;;;;10.20;5.03;;;13.60;99.90;;;;;;5033751;28;20431;-83
2022/06/10 05:34:44;;;;;;;10.23;5.80;;;13.90;99.90;;;;;;5032336;28;20177;-84
2022/06/10 05:36:13;;;;;;;8.10;5.50;;;14.20;99.90;;;;;;5030708;28;20181;-83
2022/06/10 05:38:38;;;;;;;6.13;3.70;;;14.30;99.90;;;;;;5031235;28;20474;-84
2022/06/10 05:42:04;;;;;;;7.80;3.80;;;14.60;99.90;;;;;;5033630;28;20211;-84
2022/06/10 05:43:49;;;;;;;6.10;3.37;;;14.70;99.90;;;;;;5032286;28;20206;-84
2022/06/10 05:46:17;;;;;;;7.53;3.63;;;15.00;99.90;;;;;;5033255;28;20440;-83
2022/06/10 05:48:44;;;;;;;7.30;3.03;;;15.00;99.90;;;;;;5033455;28;20594;-84
2022/06/10 05:51:11;;;;;;;7.10;3.60;;;15.30;99.90;;;;;;5033418;28;20532;-84
2022/06/10 05:53:37;;;;;;;9.07;3.03;;;15.50;99.90;;;;;;5033311;28;20449;-84
2022/06/10 05:56:02;;;;;;;7.57;3.37;;;15.70;99.90;;;;;;5033381;28;20443;-84
2022/06/10 05:58:28;;;;;;;6.03;2.10;;;15.80;99.90;;;;;;5015164;28;20581;-82
2022/06/10 06:00:53;;;;;;;6.07;3.00;;;16.00;99.90;;;;;;5015418;28;20636;-84
2022/06/10 06:03:19;;;;;;;9.93;3.30;;;16.20;99.90;;;;;;5033258;28;20301;-81
2022/06/10 06:05:44;;;;;;;8.80;2.13;;;16.30;99.90;;;;;;5015455;28;20229;-84
2022/06/10 06:08:10;;;;;;;6.73;1.90;;;16.60;99.90;;;;;;5032960;28;20207;-81
2022/06/10 06:10:36;;;;;;;4.30;1.47;;;16.80;99.90;;;;;;5032941;28;20268;-82
2022/06/10 06:13:02;;;;;;;5.43;1.97;;;16.80;43.10;;;;;;5032429;28;20501;-83
2022/06/10 06:15:27;;;;;;;7.90;1.77;;;17.00;35.20;;;;;;5032812;28;20419;-84
2022/06/10 06:17:53;;;;;;;5.60;1.20;;;17.00;1.00;;;;;;5032912;28;20209;-82
2022/06/10 06:20:21;;;;;;;4.93;0.87;;;17.10;1.00;;;;;;5032735;28;20212;-82
2022/06/10 06:22:49;;;;;;;10.10;2.53;;;17.50;1.00;;;;;;5032779;28;20254;-84
2022/06/10 06:25:16;;;;;;;5.43;1.30;;;17.60;1.00;;;;;;5014898;28;20638;-86
2022/06/10 06:27:43;;;;;;;4.93;1.67;;;17.70;99.90;;;;;;5032619;28;20420;-83
2022/06/10 06:30:16;;;;;;;4.33;0.97;;;17.70;1.00;;;;;;5032225;28;20761;-82
2022/06/10 06:32:41;;;;;;;3.07;0.93;;;17.90;1.00;;;;;;5032188;28;20480;-82
2022/06/10 06:35:12;;;;;;;2.60;0.90;;;18.20;1.00;;;;;;5032556;28;20420;-82
2022/06/10 06:37:41;;;;;;;5.40;1.10;;;18.40;1.00;;;;;;5032530;28;20221;-84
2022/06/10 06:40:09;;;;;;;3.37;1.43;;;18.60;1.00;;;;;;5014831;28;20994;-85
2022/06/10 06:42:35;;;;;;;2.90;0.87;;;18.80;1.00;;;;;;5032456;28;20477;-82
2022/06/10 06:45:01;;;;;;;4.50;0.73;;;19.00;99.90;;;;;;5032539;28;20494;-82
2022/06/10 06:47:26;;;;;;;4.83;0.60;;;19.20;99.90;;;;;;5036759;28;20444;-84
2022/06/10 06:49:52;;;;;;;4.07;0.60;;;19.30;1.00;;;;;;5036599;28;20168;-85
2022/06/10 06:52:17;;;;;;;4.00;0.90;;;19.70;1.00;;;;;;5036730;28;20173;-83
2022/06/10 06:54:43;;;;;;;5.40;1.30;;;20.30;99.90;;;;;;5036900;28;20223;-84
2022/06/10 06:57:09;;;;;;;4.63;0.70;;;21.80;99.90;;;;;;5018820;28;20271;-84
2022/06/10 06:59:35;;;;;;;5.40;0.90;;;24.10;99.90;;;;;;5036090;28;20177;-84
2022/06/10 07:02:00;;;;;;;6.13;1.17;;;25.00;99.90;;;;;;5036356;28;20467;-83
2022/06/10 07:04:26;;;;;;;4.57;0.70;;;25.00;99.90;;;;;;5036399;28;20632;-84
2022/06/10 07:06:52;;;;;;;2.90;0.80;;;25.60;99.90;;;;;;5036244;28;20182;-83
2022/06/10 07:09:18;;;;;;;4.17;1.80;;;25.90;92.30;;;;;;5036249;28;20171;-84
2022/06/10 07:11:44;;;;;;;3.80;0.80;;;26.40;96.30;;;;;;5035999;28;20744;-84
2022/06/10 07:14:10;;;;;;;2.30;0.40;;;26.70;84.50;;;;;;5035583;28;20167;-84
2022/06/10 07:16:36;;;;;;;4.30;1.03;;;26.90;81.20;;;;;;5035928;28;20413;-84
2022/06/10 07:19:02;;;;;;;3.80;0.80;;;26.90;74.50;;;;;;5036182;28;20170;-87
2022/06/10 07:21:27;;;;;;;4.03;0.87;;;26.70;56.20;;;;;;5037057;28;20198;-92
2022/06/10 07:23:53;;;;;;;2.83;1.20;;;27.00;60.60;;;;;;5017783;28;20174;-92
2022/06/10 07:26:19;;;;;;;3.23;1.27;;;27.40;61.80;;;;;;4999945;28;20179;-92
2022/06/10 07:28:44;;;;;;;4.10;1.53;;;27.30;55.40;;;;;;4999371;28;20418;-91
2022/06/10 07:31:11;;;;;;;4.37;1.00;;;27.90;62.20;;;;;;5018817;28;20193;-95
2022/06/10 07:33:36;;;;;;;3.43;1.13;;;28.40;69.60;;;;;;5039102;28;20180;-92
2022/06/10 07:36:05;;;;;;;4.27;1.23;;;28.00;47.70;;;;;;5059587;28;20790;-93
2022/06/10 07:38:31;;;;;;;4.87;0.90;;;28.20;48.00;;;;;;5058252;28;20172;-91
2022/06/10 07:43:42;;;;;;;2.30;0.50;;;27.70;35.70;;;;;;5035708;28;20822;-86
2022/06/10 07:46:12;;;;;;;3.10;0.70;;;27.80;37.70;;;;;;5035730;28;20462;-85
2022/06/10 07:48:38;;;;;;;5.93;1.17;;;28.10;34.90;;;;;;5036010;28;20437;-84
2022/06/10 07:51:05;;;;;;;1.80;0.83;;;28.20;31.40;;;;;;5036497;28;20827;-85
2022/06/10 07:53:33;;;;;;;4.50;0.80;;;27.50;25.90;;;;;;5058152;28;20408;-84
2022/06/10 07:56:00;;;;;;;4.73;1.30;;;27.80;26.90;;;;;;5059554;28;20419;-85
2022/06/10 07:58:26;;;;;;;2.30;0.70;;;28.70;36.50;;;;;;5037553;28;20422;-83
2022/06/10 08:00:56;;;;;;;3.80;0.50;;;27.80;22.80;;;;;;5055763;28;20566;-84
2022/06/10 08:03:22;;;;;;;4.20;1.23;;;28.50;30.20;;;;;;5055313;28;20158;-85
2022/06/10 08:05:48;;;;;;;1.50;0.40;;;28.70;28.80;;;;;;5038046;28;20485;-84
2022/06/10 08:08:18;;;;;;;2.37;0.67;;;28.30;20.20;;;;;;5038780;28;20177;-84
2022/06/10 08:10:45;;;;;;;3.63;1.17;;;28.30;20.80;;;;;;5037660;28;20178;-84
2022/06/10 08:13:11;;;;;;;3.17;0.60;;;28.60;22.20;;;;;;5037269;28;20412;-84
2022/06/10 08:15:37;;;;;;;3.27;0.70;;;28.60;21.30;;;;;;5055380;28;20780;-84
2022/06/10 08:18:04;;;;;;;3.37;1.23;;;28.40;18.90;;;;;;5056805;28;20424;-84
2022/06/10 08:23:24;;;;;;;4.43;0.77;;;29.10;18.40;;;;;;5055652;28;20777;-83
2022/06/10 08:25:50;;;;;;;4.10;1.10;;;29.40;19.70;;;;;;5038703;28;20439;-85
2022/06/10 08:28:16;;;;;;;3.23;1.10;;;29.10;17.30;;;;;;5036939;28;20507;-85
2022/06/10 08:30:42;;;;;;;2.77;1.00;;;29.50;19.60;;;;;;5065439;28;20174;-84
2022/06/10 08:33:07;;;;;;;4.40;1.50;;;28.90;14.00;;;;;;5055357;28;20454;-85
2022/06/10 08:35:35;;;;;;;5.13;0.80;;;29.00;13.70;;;;;;5055631;28;20591;-85
2022/06/10 08:38:05;;;;;;;1.43;0.50;;;29.00;10.10;;;;;;5055419;28;20169;-85
2022/06/10 08:40:43;;;;;;;3.57;1.10;;;28.80;9.40;;;;;;5054874;28;20558;-84
2022/06/10 08:43:39;;;;;;;5.50;1.60;;;28.90;10.70;;;;;;5054492;28;20498;-87
2022/06/10 08:46:07;;;;;;;2.03;0.73;;;29.00;9.20;;;;;;5054826;28;20435;-85
2022/06/10 08:49:02;;;;;;;3.33;1.03;;;29.40;11.50;;;;;;5055156;28;20412;-84
2022/06/10 08:51:36;;;;;;;2.13;0.53;;;29.50;11.00;;;;;;5046317;28;20416;-85
2022/06/10 08:54:13;;;;;;;7.87;1.50;;;29.30;8.70;;;;;;5033668;28;20518;-86
2022/06/10 08:56:49;;;;;;;4.13;1.10;;;29.50;7.50;;;;;;5029154;28;20489;-87
2022/06/10 08:59:14;;;;;;;4.80;0.97;;;29.30;6.60;;;;;;5054000;28;20522;-87
2022/06/10 09:02:11;;;;;;;3.90;1.37;;;29.90;8.90;;;;;;5046270;28;20563;-84
2022/06/10 09:04:55;;;;;;;2.40;1.10;;;29.70;6.10;;;;;;5034469;28;20174;-84
2022/06/10 09:07:36;;;;;;;3.37;1.27;;;28.50;1.00;;;;;;5034332;28;20500;-83
2022/06/10 09:10:03;;;;;;;3.97;1.10;;;29.10;2.30;;;;;;5033703;28;20413;-84
2022/06/10 09:12:55;;;;;;;6.10;1.40;;;29.90;5.80;;;;;;5037234;28;20510;-84
2022/06/10 09:15:22;;;;;;;4.53;1.70;;;30.10;5.00;;;;;;5054339;28;20400;-82
2022/06/10 09:17:57;;;;;;;3.00;1.00;;;30.00;1.00;;;;;;5054343;28;20442;-84
2022/06/10 09:20:39;;;;;;;6.10;1.23;;;28.70;1.00;;;;;;5055363;28;20463;-83
2022/06/10 09:23:14;;;;;;;3.50;0.97;;;27.80;1.00;;;;;;5056302;28;20420;-89
2022/06/10 09:25:49;;;;;;;5.10;0.77;;;27.30;1.00;;;;;;5055391;28;20760;-81
2022/06/10 09:28:14;;;;;;;5.20;1.37;;;28.30;1.00;;;;;;5053997;28;20420;-84
2022/06/10 09:30:50;;;;;;;2.97;1.30;;;25.90;1.00;;;;;;5050057;28;20931;-83
2022/06/10 09:33:44;;;;;;;4.67;1.27;;;25.20;1.00;;;;;;5016069;28;20280;-82
2022/06/10 09:36:31;;;;;;;6.57;1.47;;;25.20;1.00;;;;;;5028445;28;20436;-83
2022/06/10 09:42:45;;;;;;;7.17;1.70;;;25.20;1.00;;;;;;5025775;28;20479;-82
2022/06/10 09:45:37;;;;;;;6.43;1.53;;;27.90;1.00;;;;;;5033787;28;20464;-83
2022/06/10 09:48:33;;;;;;;3.27;1.37;;;27.30;1.00;;;;;;5033917;28;20417;-83
2022/06/10 09:51:07;;;;;;;4.20;1.90;;;24.80;1.00;;;;;;5033627;28;20975;-82
2022/06/10 09:53:45;;;;;;;2.13;0.83;;;24.00;1.00;;;;;;5033907;28;20492;-84
2022/06/10 09:56:35;;;;;;;2.10;1.13;;;24.60;1.00;;;;;;5031862;28;20769;-89
2022/06/10 09:59:18;;;;;;;6.03;1.73;;;26.70;1.00;;;;;;4995135;28;20433;-88
2022/06/10 10:01:50;;;;;;;3.63;1.37;;;28.70;2.70;;;;;;4994971;28;20481;-86
2022/06/10 10:04:34;;;;;;;5.90;1.83;;;26.90;1.00;;;;;;5020060;28;20429;-90
2022/06/10 10:07:13;;;;;;;10.00;1.20;;;25.10;1.00;;;;;;5011379;28;20456;-87
2022/06/10 10:10:17;;;;;;;5.73;1.80;;;27.60;1.00;;;;;;5010861;28;20433;-89
2022/06/10 10:13:30;;;;;;;7.57;1.73;;;27.60;1.00;;;;;;5021126;28;20432;-89
2022/06/10 10:16:19;;;;;;;3.53;1.27;;;25.10;1.00;;;;;;5026289;28;20450;-89
2022/06/10 10:19:09;;;;;;;4.73;1.63;;;25.00;1.00;;;;;;5030130;28;20417;-88
2022/06/10 10:21:53;;;;;;;8.93;3.30;;;25.90;1.00;;;;;;5002041;28;20511;-85
2022/06/10 10:24:22;;;;;;;4.13;2.00;;;24.70;1.00;;;;;;5025547;28;20417;-86
2022/06/10 10:26:50;;;;;;;4.20;1.60;;;24.00;1.00;;;;;;5019797;28;20413;-88
2022/06/10 10:29:22;;;;;;;4.50;1.90;;;23.80;1.00;;;;;;5024810;28;20836;-86
2022/06/10 10:32:11;;;;;;;6.03;2.03;;;25.40;1.00;;;;;;5009537;28;20977;-87
2022/06/10 10:34:38;;;;;;;2.40;1.33;;;27.10;1.20;;;;;;5004226;28;20425;-87
2022/06/10 10:37:24;;;;;;;3.07;1.37;;;28.00;1.00;;;;;;5005937;28;20432;-89
2022/06/10 10:39:54;;;;;;;6.20;1.43;;;27.50;1.00;;;;;;5020484;28;20496;-93
2022/06/10 10:42:23;;;;;;;2.73;1.60;;;27.30;1.00;;;;;;5014857;28;20519;-89
2022/06/10 10:45:18;;;;;;;3.83;1.47;;;28.10;1.00;;;;;;5020768;28;20495;-90
2022/06/10 10:47:53;;;;;;;3.20;1.50;;;28.10;1.00;;;;;;5002993;28;20433;-89
2022/06/10 10:50:24;;;;;;;2.60;1.10;;;27.20;1.00;;;;;;5018671;28;20780;-87
2022/06/10 10:52:50;;;;;;;4.17;2.37;;;25.90;1.00;;;;;;5023757;28;20429;-88
2022/06/10 10:55:18;;;;;;;4.27;1.47;;;25.60;1.00;;;;;;5011370;28;20445;-87
2022/06/10 10:57:59;;;;;;;4.33;1.10;;;26.10;1.00;;;;;;4993838;28;20481;-89
2022/06/10 11:00:52;;;;;;;4.70;1.60;;;28.20;1.00;;;;;;5012227;28;20472;-87
2022/06/10 11:03:25;;;;;;;4.17;1.10;;;27.80;1.00;;;;;;5021393;28;20941;-83
2022/06/10 11:05:55;;;;;;;6.43;2.57;;;26.20;1.00;;;;;;5032159;28;20505;-88
2022/06/10 11:08:22;;;;;;;4.53;2.10;;;26.00;1.00;;;;;;5030064;28;20437;-87
2022/06/10 11:11:02;;;;;;;4.30;1.30;;;27.30;1.00;;;;;;5031121;28;20413;-86
2022/06/10 11:13:44;;;;;;;4.07;1.03;;;27.30;1.00;;;;;;5031140;28;20401;-88
2022/06/10 11:16:39;;;;;;;4.23;1.03;;;27.70;1.00;;;;;;5032503;28;20413;-87
2022/06/10 11:19:25;;;;;;;3.50;1.40;;;27.40;1.00;;;;;;5026603;28;20472;-87
2022/06/10 11:21:54;;;;;;;3.07;1.10;;;27.10;1.00;;;;;;5032256;28;20464;-87
2022/06/10 11:24:25;;;;;;;1.90;1.23;;;26.30;1.00;;;;;;5032412;28;20441;-86
2022/06/10 11:26:54;;;;;;;2.47;0.93;;;25.90;1.00;;;;;;5032532;28;20451;-85
2022/06/10 11:29:21;;;;;;;3.00;1.00;;;25.60;1.00;;;;;;5031978;28;20496;-87
2022/06/10 11:31:55;;;;;;;3.50;1.27;;;25.50;1.00;;;;;;5041109;28;20812;-86
2022/06/10 11:34:53;;;;;;;3.47;1.53;;;25.10;1.00;;;;;;5038120;28;20422;-87
2022/06/10 11:37:35;;;;;;;5.03;1.83;;;24.50;1.00;;;;;;5055622;28;20416;-87
2022/06/10 11:40:17;;;;;;;3.53;1.53;;;24.70;1.00;;;;;;5037841;28;20424;-87
2022/06/10 11:43:08;;;;;;;2.83;1.20;;;25.10;1.00;;;;;;5037915;28;20470;-87
2022/06/10 11:45:44;;;;;;;2.63;0.90;;;26.30;1.00;;;;;;5038258;28;20416;-88
2022/06/10 11:48:40;;;;;;;3.73;0.90;;;26.60;1.00;;;;;;5037898;28;20447;-87
2022/06/10 11:51:11;;;;;;;4.70;0.90;;;27.20;1.00;;;;;;5055655;28;20491;-88
2022/06/10 11:53:53;;;;;;;2.90;1.33;;;27.20;1.00;;;;;;5037785;28;21072;-87
2022/06/10 11:59:54;;;;;;;3.67;1.37;;;26.80;1.00;;;;;;5055460;28;20778;-86
2022/06/10 12:02:35;;;;;;;5.03;1.60;;;27.40;1.00;;;;;;5037391;28;20872;-87
2022/06/10 12:05:22;;;;;;;4.40;1.50;;;28.50;1.00;;;;;;5037493;28;20868;-88
2022/06/10 12:08:10;;;;;;;3.33;1.60;;;28.30;1.00;;;;;;5055289;28;20506;-87
2022/06/10 12:10:57;;;;;;;2.80;1.37;;;27.70;84.20;;;;;;5055265;28;20414;-86
2022/06/10 12:13:24;;;;;;;2.40;1.33;;;27.10;1.00;;;;;;5037027;28;20419;-85
2022/06/10 12:15:56;;;;;;;9.67;1.97;;;27.30;1.00;;;;;;5055164;28;20488;-86
2022/06/10 12:18:27;;;;;;;6.90;1.77;;;27.50;1.00;;;;;;5055149;28;20405;-86
2022/06/10 12:21:02;;;;;;;4.63;1.87;;;27.70;1.00;;;;;;5054886;28;20918;-87
2022/06/10 12:23:34;;;;;;;4.73;1.87;;;27.50;1.00;;;;;;5054993;28;20416;-88
2022/06/10 12:26:18;;;;;;;4.20;1.37;;;27.10;1.00;;;;;;5037118;28;20806;-85
2022/06/10 12:29:01;;;;;;;3.10;0.83;;;27.50;1.00;;;;;;5036693;28;20967;-85
2022/06/10 12:31:59;;;;;;;5.47;1.07;;;26.70;1.00;;;;;;5054677;28;20458;-86
2022/06/10 12:34:42;;;;;;;4.70;1.77;;;25.60;1.00;;;;;;5054826;28;20948;-90
2022/06/10 12:37:17;;;;;;;2.70;1.20;;;25.10;1.00;;;;;;5054919;28;20453;-86
2022/06/10 12:39:52;;;;;;;3.23;1.40;;;25.10;1.00;;;;;;5055059;28;20416;-84
2022/06/10 12:42:41;;;;;;;5.33;1.83;;;24.90;1.00;;;;;;5054524;28;20459;-86
2022/06/10 12:45:22;;;;;;;3.47;1.73;;;25.10;1.00;;;;;;5055584;28;20416;-84
2022/06/10 12:47:53;;;;;;;3.70;1.87;;;25.30;1.00;;;;;;5055047;28;20927;-88
2022/06/10 12:50:27;;;;;;;3.20;1.30;;;25.40;1.00;;;;;;5036640;28;20935;-86
2022/06/10 12:53:12;;;;;;;6.57;1.77;;;25.00;1.00;;;;;;5054598;28;20415;-84
2022/06/10 12:55:48;;;;;;;3.43;1.93;;;24.90;1.00;;;;;;5036601;28;20530;-87
2022/06/10 12:58:36;;;;;;;2.63;1.27;;;24.70;1.00;;;;;;5053959;28;20975;-85
2022/06/10 13:01:39;;;;;;;4.40;1.70;;;24.70;1.00;;;;;;5036273;28;20474;-87
2022/06/10 13:04:13;;;;;;;3.00;1.70;;;24.50;1.00;;;;;;5036457;28;20970;-86
2022/06/10 13:06:41;;;;;;;8.57;3.27;;;24.70;1.00;;;;;;5036320;28;20939;-85
2022/06/10 13:09:10;;;;;;;3.70;1.67;;;25.30;1.00;;;;;;5036150;28;20416;-88
2022/06/10 13:12:20;;;;;;;5.80;1.73;;;26.00;1.00;;;;;;5054150;28;20461;-85
2022/06/10 13:15:00;;;;;;;4.17;2.07;;;26.20;1.00;;;;;;5053821;28;20495;-85
2022/06/10 13:17:30;;;;;;;3.67;1.70;;;26.10;1.00;;;;;;5053826;28;20408;-86
2022/06/10 13:19:56;;;;;;;6.50;1.83;;;25.50;1.00;;;;;;5054045;28;20423;-85
2022/06/10 13:22:22;;;;;;;3.50;1.50;;;25.10;1.00;;;;;;5053824;28;20827;-88
2022/06/10 13:24:53;;;;;;;6.40;1.80;;;24.80;1.00;;;;;;5054075;28;20408;-84
2022/06/10 13:27:32;;;;;;;2.40;1.33;;;24.80;4.10;;;;;;5053946;28;20630;-87
2022/06/10 13:30:39;;;;;;;3.40;1.33;;;24.90;9.20;;;;;;5053989;28;20469;-85
2022/06/10 13:33:09;;;;;;;4.53;1.40;;;24.60;1.00;;;;;;5035191;28;21113;-86
2022/06/10 13:35:50;;;;;;;3.10;1.20;;;24.70;3.60;;;;;;5053620;28;20428;-86
2022/06/10 13:38:29;;;;;;;3.97;1.30;;;24.50;8.40;;;;;;5053682;28;20522;-86
2022/06/10 13:43:49;;;;;;;2.70;0.97;;;24.60;23.10;;;;;;5053805;28;20415;-88
2022/06/10 13:46:23;;;;;;;1.87;1.10;;;25.70;11.20;;;;;;5053567;28;20471;-85
2022/06/10 13:49:04;;;;;;;2.53;0.93;;;25.40;10.30;;;;;;5035513;28;20748;-86